sensor_id;sensor_type;location;lat;lon;timestamp;P1;durP1;ratioP1;P2;durP2;ratioP2
28455;SDS011;15682;56.742;38.866;2023-07-16T00:00:19;12.2;;;8.2;;
28455;SDS011;15682;56.742;38.866;2023-07-16T00:02:19;14.5;;;8.2;;
28455;SDS011;15682;56.742;38.866;2023-07-16T00:04:19;9.7;;;7.6;;
28455;SDS011;15682;56.742;38.866;2023-07-16T00:06:20;9.6;;;7.9;;
28455;SDS011;15682;56.742;38.866;2023-07-16T00:08:20;13.5;;;8.2;;
28455;SDS011;15682;56.742;38.866;2023-07-16T00:10:21;10.0;;;8.2;;
28455;SDS011;15682;56.742;38.866;2023-07-16T00:12:21;13.5;;;8.4;;
28455;SDS011;15682;56.742;38.866;2023-07-16T00:14:21;13.4;;;8.1;;
28455;SDS011;15682;56.742;38.866;2023-07-16T00:16:21;9.7;;;8.0;;
28455;SDS011;15682;56.742;38.866;2023-07-16T00:18:22;11.6;;;7.8;;
28455;SDS011;15682;56.742;38.866;2023-07-16T00:20:22;12.8;;;7.9;;
28455;SDS011;15682;56.742;38.866;2023-07-16T00:22:22;13.2;;;7.9;;
28455;SDS011;15682;56.742;38.866;2023-07-16T00:24:23;10.0;;;7.7;;
28455;SDS011;15682;56.742;38.866;2023-07-16T00:26:23;10.4;;;7.8;;
28455;SDS011;15682;56.742;38.866;2023-07-16T00:28:23;12.1;;;7.9;;
28455;SDS011;15682;56.742;38.866;2023-07-16T00:30:24;11.6;;;8.3;;
28455;SDS011;15682;56.742;38.866;2023-07-16T00:32:24;10.8;;;7.6;;
28455;SDS011;15682;56.742;38.866;2023-07-16T00:34:24;16.6;;;7.8;;
28455;SDS011;15682;56.742;38.866;2023-07-16T00:36:25;12.0;;;8.4;;
28455;SDS011;15682;56.742;38.866;2023-07-16T00:38:25;11.8;;;8.0;;
28455;SDS011;15682;56.742;38.866;2023-07-16T00:40:25;12.0;;;7.8;;
28455;SDS011;15682;56.742;38.866;2023-07-16T00:42:26;10.7;;;7.5;;
28455;SDS011;15682;56.742;38.866;2023-07-16T00:44:26;13.6;;;7.8;;
28455;SDS011;15682;56.742;38.866;2023-07-16T00:46:26;13.7;;;8.2;;
28455;SDS011;15682;56.742;38.866;2023-07-16T00:48:27;10.8;;;8.2;;
28455;SDS011;15682;56.742;38.866;2023-07-16T00:50:27;12.1;;;7.9;;
28455;SDS011;15682;56.742;38.866;2023-07-16T00:52:27;11.0;;;7.9;;
28455;SDS011;15682;56.742;38.866;2023-07-16T00:54:28;12.5;;;7.8;;
28455;SDS011;15682;56.742;38.866;2023-07-16T00:56:28;10.0;;;7.7;;
28455;SDS011;15682;56.742;38.866;2023-07-16T00:58:28;13.0;;;7.9;;
28455;SDS011;15682;56.742;38.866;2023-07-16T01:00:29;12.9;;;7.8;;
28455;SDS011;15682;56.742;38.866;2023-07-16T01:02:29;13.7;;;8.2;;
28455;SDS011;15682;56.742;38.866;2023-07-16T01:04:29;13.6;;;8.2;;
28455;SDS011;15682;56.742;38.866;2023-07-16T01:06:31;11.0;;;7.9;;
28455;SDS011;15682;56.742;38.866;2023-07-16T01:08:31;11.4;;;7.7;;
28455;SDS011;15682;56.742;38.866;2023-07-16T01:10:30;13.0;;;7.9;;
28455;SDS011;15682;56.742;38.866;2023-07-16T01:12:31;10.1;;;7.8;;
28455;SDS011;15682;56.742;38.866;2023-07-16T01:14:31;9.8;;;7.7;;
28455;SDS011;15682;56.742;38.866;2023-07-16T01:16:31;10.3;;;7.9;;
28455;SDS011;15682;56.742;38.866;2023-07-16T01:18:32;11.9;;;7.8;;
28455;SDS011;15682;56.742;38.866;2023-07-16T01:20:32;11.4;;;7.8;;
28455;SDS011;15682;56.742;38.866;2023-07-16T01:22:35;15.2;;;8.3;;
28455;SDS011;15682;56.742;38.866;2023-07-16T01:24:50;11.3;;;7.9;;
28455;SDS011;15682;56.742;38.866;2023-07-16T01:26:38;11.3;;;8.2;;
28455;SDS011;15682;56.742;38.866;2023-07-16T01:28:39;14.8;;;8.1;;
28455;SDS011;15682;56.742;38.866;2023-07-16T01:30:34;12.0;;;7.7;;
28455;SDS011;15682;56.742;38.866;2023-07-16T01:32:34;12.6;;;8.0;;
28455;SDS011;15682;56.742;38.866;2023-07-16T01:34:34;12.7;;;7.9;;
28455;SDS011;15682;56.742;38.866;2023-07-16T01:36:35;12.1;;;8.5;;
28455;SDS011;15682;56.742;38.866;2023-07-16T01:38:35;9.5;;;7.7;;
28455;SDS011;15682;56.742;38.866;2023-07-16T01:40:35;10.2;;;7.7;;
28455;SDS011;15682;56.742;38.866;2023-07-16T01:42:36;12.8;;;7.7;;
28455;SDS011;15682;56.742;38.866;2023-07-16T01:44:36;10.0;;;7.7;;
28455;SDS011;15682;56.742;38.866;2023-07-16T01:46:36;9.8;;;7.7;;
28455;SDS011;15682;56.742;38.866;2023-07-16T01:48:37;12.3;;;7.8;;
28455;SDS011;15682;56.742;38.866;2023-07-16T01:50:37;10.8;;;7.5;;
28455;SDS011;15682;56.742;38.866;2023-07-16T01:52:37;9.6;;;7.2;;
28455;SDS011;15682;56.742;38.866;2023-07-16T01:54:38;10.4;;;7.8;;
28455;SDS011;15682;56.742;38.866;2023-07-16T01:56:38;12.5;;;7.9;;
28455;SDS011;15682;56.742;38.866;2023-07-16T01:58:38;9.8;;;7.7;;
28455;SDS011;15682;56.742;38.866;2023-07-16T02:00:39;12.1;;;7.6;;
28455;SDS011;15682;56.742;38.866;2023-07-16T02:02:39;12.0;;;7.5;;
28455;SDS011;15682;56.742;38.866;2023-07-16T02:04:39;12.5;;;7.3;;
28455;SDS011;15682;56.742;38.866;2023-07-16T02:06:40;8.6;;;7.1;;
28455;SDS011;15682;56.742;38.866;2023-07-16T02:08:40;9.1;;;6.7;;
28455;SDS011;15682;56.742;38.866;2023-07-16T02:10:40;9.3;;;7.0;;
28455;SDS011;15682;56.742;38.866;2023-07-16T02:12:41;8.8;;;6.7;;
28455;SDS011;15682;56.742;38.866;2023-07-16T02:14:41;14.0;;;7.4;;
28455;SDS011;15682;56.742;38.866;2023-07-16T02:16:42;8.7;;;7.1;;
28455;SDS011;15682;56.742;38.866;2023-07-16T02:18:42;11.4;;;7.1;;
28455;SDS011;15682;56.742;38.866;2023-07-16T02:20:43;10.0;;;7.3;;
28455;SDS011;15682;56.742;38.866;2023-07-16T02:22:43;10.8;;;7.6;;
28455;SDS011;15682;56.742;38.866;2023-07-16T02:24:43;9.3;;;6.9;;
28455;SDS011;15682;56.742;38.866;2023-07-16T02:26:43;12.0;;;7.3;;
28455;SDS011;15682;56.742;38.866;2023-07-16T02:28:44;11.1;;;6.7;;
28455;SDS011;15682;56.742;38.866;2023-07-16T02:30:44;10.1;;;7.0;;
28455;SDS011;15682;56.742;38.866;2023-07-16T02:32:44;10.8;;;7.1;;
28455;SDS011;15682;56.742;38.866;2023-07-16T02:34:45;9.0;;;6.6;;
28455;SDS011;15682;56.742;38.866;2023-07-16T02:36:45;11.2;;;6.7;;
28455;SDS011;15682;56.742;38.866;2023-07-16T02:38:45;12.3;;;7.1;;
28455;SDS011;15682;56.742;38.866;2023-07-16T02:40:47;8.3;;;6.4;;
28455;SDS011;15682;56.742;38.866;2023-07-16T02:42:46;12.4;;;7.0;;
28455;SDS011;15682;56.742;38.866;2023-07-16T02:44:47;10.8;;;7.0;;
28455;SDS011;15682;56.742;38.866;2023-07-16T02:46:47;10.2;;;7.4;;
28455;SDS011;15682;56.742;38.866;2023-07-16T02:48:47;9.0;;;6.6;;
28455;SDS011;15682;56.742;38.866;2023-07-16T02:50:48;12.9;;;7.3;;
28455;SDS011;15682;56.742;38.866;2023-07-16T02:52:48;10.8;;;7.1;;
28455;SDS011;15682;56.742;38.866;2023-07-16T02:54:48;12.0;;;6.7;;
28455;SDS011;15682;56.742;38.866;2023-07-16T02:56:49;9.8;;;7.1;;
28455;SDS011;15682;56.742;38.866;2023-07-16T02:58:49;10.0;;;7.0;;
28455;SDS011;15682;56.742;38.866;2023-07-16T03:00:50;8.3;;;7.1;;
28455;SDS011;15682;56.742;38.866;2023-07-16T03:02:50;10.4;;;7.0;;
28455;SDS011;15682;56.742;38.866;2023-07-16T03:04:50;11.6;;;7.2;;
28455;SDS011;15682;56.742;38.866;2023-07-16T03:06:51;12.9;;;7.0;;
28455;SDS011;15682;56.742;38.866;2023-07-16T03:08:51;8.6;;;6.8;;
28455;SDS011;15682;56.742;38.866;2023-07-16T03:10:51;9.0;;;6.6;;
28455;SDS011;15682;56.742;38.866;2023-07-16T03:12:52;10.4;;;7.1;;
28455;SDS011;15682;56.742;38.866;2023-07-16T03:14:52;9.3;;;6.8;;
28455;SDS011;15682;56.742;38.866;2023-07-16T03:16:53;9.6;;;6.6;;
28455;SDS011;15682;56.742;38.866;2023-07-16T03:18:53;8.7;;;6.5;;
28455;SDS011;15682;56.742;38.866;2023-07-16T03:20:53;11.6;;;7.2;;
28455;SDS011;15682;56.742;38.866;2023-07-16T03:22:54;7.9;;;6.9;;
28455;SDS011;15682;56.742;38.866;2023-07-16T03:24:54;8.1;;;6.8;;
28455;SDS011;15682;56.742;38.866;2023-07-16T03:26:55;11.5;;;7.4;;
28455;SDS011;15682;56.742;38.866;2023-07-16T03:28:55;8.6;;;7.5;;
28455;SDS011;15682;56.742;38.866;2023-07-16T03:30:55;11.2;;;8.0;;
28455;SDS011;15682;56.742;38.866;2023-07-16T03:32:56;9.9;;;7.2;;
28455;SDS011;15682;56.742;38.866;2023-07-16T03:34:56;9.5;;;7.0;;
28455;SDS011;15682;56.742;38.866;2023-07-16T03:36:57;10.5;;;7.2;;
28455;SDS011;15682;56.742;38.866;2023-07-16T03:38:57;10.2;;;7.5;;
28455;SDS011;15682;56.742;38.866;2023-07-16T03:40:58;9.3;;;7.2;;
28455;SDS011;15682;56.742;38.866;2023-07-16T03:42:58;9.1;;;6.8;;
28455;SDS011;15682;56.742;38.866;2023-07-16T03:44:58;10.3;;;7.1;;
28455;SDS011;15682;56.742;38.866;2023-07-16T03:46:59;8.4;;;7.0;;
28455;SDS011;15682;56.742;38.866;2023-07-16T03:48:59;8.7;;;6.5;;
28455;SDS011;15682;56.742;38.866;2023-07-16T03:51:00;9.4;;;6.3;;
28455;SDS011;15682;56.742;38.866;2023-07-16T03:53:00;8.8;;;6.1;;
28455;SDS011;15682;56.742;38.866;2023-07-16T03:55:00;7.2;;;6.4;;
28455;SDS011;15682;56.742;38.866;2023-07-16T03:57:01;9.1;;;5.8;;
28455;SDS011;15682;56.742;38.866;2023-07-16T03:59:01;8.1;;;5.7;;
28455;SDS011;15682;56.742;38.866;2023-07-16T04:01:02;7.1;;;5.9;;
28455;SDS011;15682;56.742;38.866;2023-07-16T04:03:02;7.6;;;5.6;;
28455;SDS011;15682;56.742;38.866;2023-07-16T04:05:03;6.5;;;5.4;;
28455;SDS011;15682;56.742;38.866;2023-07-16T04:07:03;8.9;;;5.8;;
28455;SDS011;15682;56.742;38.866;2023-07-16T04:09:04;7.4;;;5.6;;
28455;SDS011;15682;56.742;38.866;2023-07-16T04:11:04;8.4;;;5.6;;
28455;SDS011;15682;56.742;38.866;2023-07-16T04:13:05;7.6;;;5.6;;
28455;SDS011;15682;56.742;38.866;2023-07-16T04:15:07;7.7;;;5.6;;
28455;SDS011;15682;56.742;38.866;2023-07-16T04:17:06;9.1;;;5.6;;
28455;SDS011;15682;56.742;38.866;2023-07-16T04:19:08;7.5;;;5.3;;
28455;SDS011;15682;56.742;38.866;2023-07-16T04:21:06;7.9;;;4.8;;
28455;SDS011;15682;56.742;38.866;2023-07-16T04:23:07;7.7;;;4.9;;
28455;SDS011;15682;56.742;38.866;2023-07-16T04:25:08;8.5;;;4.9;;
28455;SDS011;15682;56.742;38.866;2023-07-16T04:27:08;8.0;;;5.2;;
28455;SDS011;15682;56.742;38.866;2023-07-16T04:29:09;6.3;;;5.1;;
28455;SDS011;15682;56.742;38.866;2023-07-16T04:31:09;8.7;;;5.4;;
28455;SDS011;15682;56.742;38.866;2023-07-16T04:33:10;7.7;;;5.7;;
28455;SDS011;15682;56.742;38.866;2023-07-16T04:35:10;10.6;;;5.8;;
28455;SDS011;15682;56.742;38.866;2023-07-16T04:37:11;7.7;;;5.8;;
28455;SDS011;15682;56.742;38.866;2023-07-16T04:39:11;7.3;;;5.6;;
28455;SDS011;15682;56.742;38.866;2023-07-16T04:41:12;6.9;;;5.3;;
28455;SDS011;15682;56.742;38.866;2023-07-16T04:43:12;7.1;;;5.5;;
28455;SDS011;15682;56.742;38.866;2023-07-16T04:45:13;7.9;;;6.1;;
28455;SDS011;15682;56.742;38.866;2023-07-16T04:47:13;7.1;;;5.8;;
28455;SDS011;15682;56.742;38.866;2023-07-16T04:49:14;8.5;;;5.4;;
28455;SDS011;15682;56.742;38.866;2023-07-16T04:51:14;7.7;;;5.7;;
28455;SDS011;15682;56.742;38.866;2023-07-16T04:53:15;7.3;;;5.4;;
28455;SDS011;15682;56.742;38.866;2023-07-16T04:55:15;5.7;;;5.0;;
28455;SDS011;15682;56.742;38.866;2023-07-16T04:57:16;8.9;;;5.5;;
28455;SDS011;15682;56.742;38.866;2023-07-16T04:59:16;8.0;;;5.1;;
28455;SDS011;15682;56.742;38.866;2023-07-16T05:01:17;8.5;;;5.0;;
28455;SDS011;15682;56.742;38.866;2023-07-16T05:03:17;7.6;;;4.6;;
28455;SDS011;15682;56.742;38.866;2023-07-16T05:05:18;5.5;;;4.3;;
28455;SDS011;15682;56.742;38.866;2023-07-16T05:07:19;6.4;;;4.3;;
28455;SDS011;15682;56.742;38.866;2023-07-16T05:09:19;9.4;;;4.5;;
28455;SDS011;15682;56.742;38.866;2023-07-16T05:11:20;7.1;;;4.2;;
28455;SDS011;15682;56.742;38.866;2023-07-16T05:13:20;5.6;;;4.5;;
28455;SDS011;15682;56.742;38.866;2023-07-16T05:15:21;6.7;;;4.2;;
28455;SDS011;15682;56.742;38.866;2023-07-16T05:17:22;5.3;;;4.0;;
28455;SDS011;15682;56.742;38.866;2023-07-16T05:19:23;6.7;;;4.1;;
28455;SDS011;15682;56.742;38.866;2023-07-16T05:21:23;6.8;;;4.0;;
28455;SDS011;15682;56.742;38.866;2023-07-16T05:23:24;7.8;;;3.8;;
28455;SDS011;15682;56.742;38.866;2023-07-16T05:25:25;6.6;;;3.8;;
28455;SDS011;15682;56.742;38.866;2023-07-16T05:27:26;6.5;;;3.6;;
28455;SDS011;15682;56.742;38.866;2023-07-16T05:29:26;5.9;;;3.7;;
28455;SDS011;15682;56.742;38.866;2023-07-16T05:31:27;6.2;;;3.7;;
28455;SDS011;15682;56.742;38.866;2023-07-16T05:33:28;6.5;;;3.5;;
28455;SDS011;15682;56.742;38.866;2023-07-16T05:35:29;7.4;;;3.5;;
28455;SDS011;15682;56.742;38.866;2023-07-16T05:37:30;4.2;;;3.8;;
28455;SDS011;15682;56.742;38.866;2023-07-16T05:39:31;6.0;;;3.9;;
28455;SDS011;15682;56.742;38.866;2023-07-16T05:41:31;4.3;;;3.5;;
28455;SDS011;15682;56.742;38.866;2023-07-16T05:43:32;5.4;;;3.5;;
28455;SDS011;15682;56.742;38.866;2023-07-16T05:45:33;5.1;;;3.2;;
28455;SDS011;15682;56.742;38.866;2023-07-16T05:47:34;4.6;;;3.4;;
28455;SDS011;15682;56.742;38.866;2023-07-16T05:49:35;6.2;;;3.5;;
28455;SDS011;15682;56.742;38.866;2023-07-16T05:51:36;6.2;;;3.3;;
28455;SDS011;15682;56.742;38.866;2023-07-16T05:53:37;4.3;;;2.9;;
28455;SDS011;15682;56.742;38.866;2023-07-16T05:55:39;6.7;;;3.3;;
28455;SDS011;15682;56.742;38.866;2023-07-16T05:57:39;4.8;;;2.6;;
28455;SDS011;15682;56.742;38.866;2023-07-16T05:59:39;7.5;;;2.7;;
28455;SDS011;15682;56.742;38.866;2023-07-16T06:01:40;5.0;;;2.8;;
28455;SDS011;15682;56.742;38.866;2023-07-16T06:03:41;3.9;;;2.6;;
28455;SDS011;15682;56.742;38.866;2023-07-16T06:05:42;6.3;;;2.8;;
28455;SDS011;15682;56.742;38.866;2023-07-16T06:07:43;4.8;;;2.6;;
28455;SDS011;15682;56.742;38.866;2023-07-16T06:09:44;4.4;;;2.9;;
28455;SDS011;15682;56.742;38.866;2023-07-16T06:11:46;5.2;;;2.7;;
28455;SDS011;15682;56.742;38.866;2023-07-16T06:13:46;4.5;;;2.9;;
28455;SDS011;15682;56.742;38.866;2023-07-16T06:15:47;3.6;;;2.8;;
28455;SDS011;15682;56.742;38.866;2023-07-16T06:17:48;4.7;;;2.9;;
28455;SDS011;15682;56.742;38.866;2023-07-16T06:19:49;6.1;;;3.0;;
28455;SDS011;15682;56.742;38.866;2023-07-16T06:21:49;7.7;;;2.7;;
28455;SDS011;15682;56.742;38.866;2023-07-16T06:23:50;4.9;;;2.8;;
28455;SDS011;15682;56.742;38.866;2023-07-16T06:25:53;4.5;;;3.1;;
28455;SDS011;15682;56.742;38.866;2023-07-16T06:27:53;5.3;;;3.1;;
28455;SDS011;15682;56.742;38.866;2023-07-16T06:29:53;4.6;;;2.9;;
28455;SDS011;15682;56.742;38.866;2023-07-16T06:31:54;4.0;;;2.6;;
28455;SDS011;15682;56.742;38.866;2023-07-16T06:33:55;3.1;;;2.6;;
28455;SDS011;15682;56.742;38.866;2023-07-16T06:35:56;3.1;;;2.7;;
28455;SDS011;15682;56.742;38.866;2023-07-16T06:37:57;3.6;;;2.8;;
28455;SDS011;15682;56.742;38.866;2023-07-16T06:39:58;7.1;;;3.1;;
28455;SDS011;15682;56.742;38.866;2023-07-16T06:41:59;4.7;;;2.8;;
28455;SDS011;15682;56.742;38.866;2023-07-16T06:44:00;7.8;;;3.3;;
28455;SDS011;15682;56.742;38.866;2023-07-16T06:46:01;6.1;;;2.8;;
28455;SDS011;15682;56.742;38.866;2023-07-16T06:48:01;7.4;;;3.3;;
28455;SDS011;15682;56.742;38.866;2023-07-16T06:50:03;6.7;;;3.0;;
28455;SDS011;15682;56.742;38.866;2023-07-16T06:52:04;6.0;;;3.0;;
28455;SDS011;15682;56.742;38.866;2023-07-16T06:54:04;6.6;;;2.9;;
28455;SDS011;15682;56.742;38.866;2023-07-16T06:56:05;4.8;;;3.0;;
28455;SDS011;15682;56.742;38.866;2023-07-16T06:58:10;3.6;;;2.9;;
28455;SDS011;15682;56.742;38.866;2023-07-16T07:00:07;3.9;;;2.5;;
28455;SDS011;15682;56.742;38.866;2023-07-16T07:02:08;3.3;;;2.4;;
28455;SDS011;15682;56.742;38.866;2023-07-16T07:04:09;4.4;;;2.2;;
28455;SDS011;15682;56.742;38.866;2023-07-16T07:06:10;5.5;;;2.9;;
28455;SDS011;15682;56.742;38.866;2023-07-16T07:08:11;3.4;;;2.3;;
28455;SDS011;15682;56.742;38.866;2023-07-16T07:10:12;2.6;;;2.3;;
28455;SDS011;15682;56.742;38.866;2023-07-16T07:12:13;5.2;;;2.5;;
28455;SDS011;15682;56.742;38.866;2023-07-16T07:14:14;6.3;;;2.5;;
28455;SDS011;15682;56.742;38.866;2023-07-16T07:16:14;6.7;;;2.6;;
28455;SDS011;15682;56.742;38.866;2023-07-16T07:18:15;3.0;;;2.1;;
28455;SDS011;15682;56.742;38.866;2023-07-16T07:20:16;5.8;;;2.3;;
28455;SDS011;15682;56.742;38.866;2023-07-16T07:22:17;3.9;;;2.2;;
28455;SDS011;15682;56.742;38.866;2023-07-16T07:24:18;4.8;;;2.3;;
28455;SDS011;15682;56.742;38.866;2023-07-16T07:26:20;4.9;;;2.3;;
28455;SDS011;15682;56.742;38.866;2023-07-16T07:28:20;4.3;;;2.3;;
28455;SDS011;15682;56.742;38.866;2023-07-16T07:30:21;4.7;;;2.2;;
28455;SDS011;15682;56.742;38.866;2023-07-16T07:32:22;3.7;;;2.1;;
28455;SDS011;15682;56.742;38.866;2023-07-16T07:34:23;5.4;;;2.3;;
28455;SDS011;15682;56.742;38.866;2023-07-16T07:36:24;5.4;;;2.2;;
28455;SDS011;15682;56.742;38.866;2023-07-16T07:38:24;4.4;;;2.1;;
28455;SDS011;15682;56.742;38.866;2023-07-16T07:40:25;6.8;;;2.8;;
28455;SDS011;15682;56.742;38.866;2023-07-16T07:42:26;4.8;;;2.6;;
28455;SDS011;15682;56.742;38.866;2023-07-16T07:44:27;3.5;;;2.2;;
28455;SDS011;15682;56.742;38.866;2023-07-16T07:46:28;3.4;;;2.3;;
28455;SDS011;15682;56.742;38.866;2023-07-16T07:48:28;10.4;;;2.5;;
28455;SDS011;15682;56.742;38.866;2023-07-16T07:50:29;12.7;;;3.1;;
28455;SDS011;15682;56.742;38.866;2023-07-16T07:52:30;4.1;;;2.2;;
28455;SDS011;15682;56.742;38.866;2023-07-16T07:54:31;5.7;;;2.3;;
28455;SDS011;15682;56.742;38.866;2023-07-16T07:56:31;6.2;;;2.2;;
28455;SDS011;15682;56.742;38.866;2023-07-16T07:58:32;8.0;;;2.3;;
28455;SDS011;15682;56.742;38.866;2023-07-16T08:00:32;6.2;;;2.2;;
28455;SDS011;15682;56.742;38.866;2023-07-16T08:02:33;4.7;;;2.1;;
28455;SDS011;15682;56.742;38.866;2023-07-16T08:04:34;5.6;;;2.1;;
28455;SDS011;15682;56.742;38.866;2023-07-16T08:06:34;6.0;;;2.3;;
28455;SDS011;15682;56.742;38.866;2023-07-16T08:08:35;7.9;;;2.2;;
28455;SDS011;15682;56.742;38.866;2023-07-16T08:10:35;6.2;;;2.2;;
28455;SDS011;15682;56.742;38.866;2023-07-16T08:12:36;5.4;;;2.6;;
28455;SDS011;15682;56.742;38.866;2023-07-16T08:14:37;6.7;;;2.3;;
28455;SDS011;15682;56.742;38.866;2023-07-16T08:16:37;6.1;;;2.0;;
28455;SDS011;15682;56.742;38.866;2023-07-16T08:18:38;4.6;;;2.0;;
28455;SDS011;15682;56.742;38.866;2023-07-16T08:20:38;11.2;;;2.1;;
28455;SDS011;15682;56.742;38.866;2023-07-16T08:22:39;10.4;;;3.7;;
28455;SDS011;15682;56.742;38.866;2023-07-16T08:24:40;4.8;;;2.2;;
28455;SDS011;15682;56.742;38.866;2023-07-16T08:26:40;5.2;;;1.9;;
28455;SDS011;15682;56.742;38.866;2023-07-16T08:28:41;3.6;;;1.8;;
28455;SDS011;15682;56.742;38.866;2023-07-16T08:30:41;5.5;;;2.0;;
28455;SDS011;15682;56.742;38.866;2023-07-16T08:32:42;6.3;;;1.8;;
28455;SDS011;15682;56.742;38.866;2023-07-16T08:34:42;7.1;;;1.9;;
28455;SDS011;15682;56.742;38.866;2023-07-16T08:36:43;6.9;;;2.2;;
28455;SDS011;15682;56.742;38.866;2023-07-16T08:38:44;5.8;;;2.2;;
28455;SDS011;15682;56.742;38.866;2023-07-16T08:40:44;8.0;;;2.3;;
28455;SDS011;15682;56.742;38.866;2023-07-16T08:42:45;6.8;;;2.1;;
28455;SDS011;15682;56.742;38.866;2023-07-16T08:44:45;5.7;;;2.2;;
28455;SDS011;15682;56.742;38.866;2023-07-16T08:46:46;5.1;;;2.0;;
28455;SDS011;15682;56.742;38.866;2023-07-16T08:48:46;4.2;;;1.9;;
28455;SDS011;15682;56.742;38.866;2023-07-16T08:50:47;5.1;;;1.6;;
28455;SDS011;15682;56.742;38.866;2023-07-16T08:52:47;3.8;;;1.7;;
28455;SDS011;15682;56.742;38.866;2023-07-16T08:54:48;8.7;;;1.8;;
28455;SDS011;15682;56.742;38.866;2023-07-16T08:56:49;8.2;;;2.0;;
28455;SDS011;15682;56.742;38.866;2023-07-16T08:58:49;6.6;;;1.9;;
28455;SDS011;15682;56.742;38.866;2023-07-16T09:00:50;6.7;;;1.9;;
28455;SDS011;15682;56.742;38.866;2023-07-16T09:02:50;8.1;;;2.0;;
28455;SDS011;15682;56.742;38.866;2023-07-16T09:04:51;8.2;;;1.9;;
28455;SDS011;15682;56.742;38.866;2023-07-16T09:06:51;7.2;;;1.7;;
28455;SDS011;15682;56.742;38.866;2023-07-16T09:08:52;3.8;;;1.6;;
28455;SDS011;15682;56.742;38.866;2023-07-16T09:10:53;5.5;;;1.7;;
28455;SDS011;15682;56.742;38.866;2023-07-16T09:12:53;8.0;;;2.3;;
28455;SDS011;15682;56.742;38.866;2023-07-16T09:14:54;4.2;;;1.8;;
28455;SDS011;15682;56.742;38.866;2023-07-16T09:16:54;8.8;;;2.1;;
28455;SDS011;15682;56.742;38.866;2023-07-16T09:18:55;8.0;;;1.7;;
28455;SDS011;15682;56.742;38.866;2023-07-16T09:20:56;3.9;;;1.7;;
28455;SDS011;15682;56.742;38.866;2023-07-16T09:22:56;3.8;;;1.5;;
28455;SDS011;15682;56.742;38.866;2023-07-16T09:24:57;5.2;;;1.5;;
28455;SDS011;15682;56.742;38.866;2023-07-16T09:26:57;5.8;;;1.8;;
28455;SDS011;15682;56.742;38.866;2023-07-16T09:28:58;4.9;;;1.8;;
28455;SDS011;15682;56.742;38.866;2023-07-16T09:31:03;3.7;;;1.9;;
28455;SDS011;15682;56.742;38.866;2023-07-16T09:33:03;5.2;;;2.1;;
28455;SDS011;15682;56.742;38.866;2023-07-16T09:35:00;5.4;;;1.7;;
28455;SDS011;15682;56.742;38.866;2023-07-16T09:37:01;3.6;;;1.5;;
28455;SDS011;15682;56.742;38.866;2023-07-16T09:39:01;4.3;;;1.4;;
28455;SDS011;15682;56.742;38.866;2023-07-16T09:41:01;7.2;;;1.9;;
28455;SDS011;15682;56.742;38.866;2023-07-16T09:43:02;7.6;;;1.8;;
28455;SDS011;15682;56.742;38.866;2023-07-16T09:45:03;2.8;;;1.7;;
28455;SDS011;15682;56.742;38.866;2023-07-16T09:47:03;3.2;;;1.4;;
28455;SDS011;15682;56.742;38.866;2023-07-16T09:49:04;3.9;;;1.7;;
28455;SDS011;15682;56.742;38.866;2023-07-16T09:51:04;7.2;;;1.8;;
28455;SDS011;15682;56.742;38.866;2023-07-16T09:53:05;10.2;;;2.0;;
28455;SDS011;15682;56.742;38.866;2023-07-16T09:55:06;6.4;;;1.3;;
28455;SDS011;15682;56.742;38.866;2023-07-16T09:57:06;5.5;;;1.7;;
28455;SDS011;15682;56.742;38.866;2023-07-16T09:59:09;2.6;;;1.4;;
28455;SDS011;15682;56.742;38.866;2023-07-16T10:01:07;3.9;;;1.7;;
28455;SDS011;15682;56.742;38.866;2023-07-16T10:03:08;5.1;;;1.7;;
28455;SDS011;15682;56.742;38.866;2023-07-16T10:05:12;5.0;;;1.9;;
28455;SDS011;15682;56.742;38.866;2023-07-16T10:07:19;5.9;;;1.7;;
28455;SDS011;15682;56.742;38.866;2023-07-16T10:09:09;7.8;;;1.8;;
28455;SDS011;15682;56.742;38.866;2023-07-16T10:11:15;8.3;;;1.9;;
28455;SDS011;15682;56.742;38.866;2023-07-16T10:13:11;5.8;;;1.8;;
28455;SDS011;15682;56.742;38.866;2023-07-16T10:15:11;7.4;;;2.2;;
28455;SDS011;15682;56.742;38.866;2023-07-16T10:17:12;7.9;;;2.1;;
28455;SDS011;15682;56.742;38.866;2023-07-16T10:19:12;4.2;;;1.9;;
28455;SDS011;15682;56.742;38.866;2023-07-16T10:21:13;6.4;;;1.6;;
28455;SDS011;15682;56.742;38.866;2023-07-16T10:23:14;5.7;;;1.6;;
28455;SDS011;15682;56.742;38.866;2023-07-16T10:25:22;3.2;;;1.5;;
28455;SDS011;15682;56.742;38.866;2023-07-16T10:27:14;7.0;;;1.9;;
28455;SDS011;15682;56.742;38.866;2023-07-16T10:29:15;4.8;;;1.8;;
28455;SDS011;15682;56.742;38.866;2023-07-16T10:31:17;3.8;;;1.8;;
28455;SDS011;15682;56.742;38.866;2023-07-16T10:33:16;6.3;;;1.9;;
28455;SDS011;15682;56.742;38.866;2023-07-16T10:35:17;5.6;;;1.9;;
28455;SDS011;15682;56.742;38.866;2023-07-16T10:37:17;3.5;;;2.1;;
28455;SDS011;15682;56.742;38.866;2023-07-16T10:39:18;5.2;;;2.3;;
28455;SDS011;15682;56.742;38.866;2023-07-16T10:41:18;4.3;;;2.2;;
28455;SDS011;15682;56.742;38.866;2023-07-16T10:43:19;3.3;;;1.8;;
28455;SDS011;15682;56.742;38.866;2023-07-16T10:45:19;4.2;;;2.1;;
28455;SDS011;15682;56.742;38.866;2023-07-16T10:47:22;2.4;;;1.8;;
28455;SDS011;15682;56.742;38.866;2023-07-16T10:49:26;5.4;;;1.7;;
28455;SDS011;15682;56.742;38.866;2023-07-16T10:51:24;6.0;;;1.8;;
28455;SDS011;15682;56.742;38.866;2023-07-16T10:53:22;3.9;;;1.7;;
28455;SDS011;15682;56.742;38.866;2023-07-16T10:55:22;3.4;;;1.6;;
28455;SDS011;15682;56.742;38.866;2023-07-16T10:57:23;4.2;;;1.5;;
28455;SDS011;15682;56.742;38.866;2023-07-16T10:59:23;5.8;;;1.8;;
28455;SDS011;15682;56.742;38.866;2023-07-16T11:01:24;3.7;;;1.7;;
28455;SDS011;15682;56.742;38.866;2023-07-16T11:03:24;4.1;;;1.7;;
28455;SDS011;15682;56.742;38.866;2023-07-16T11:05:25;8.1;;;2.4;;
28455;SDS011;15682;56.742;38.866;2023-07-16T11:07:26;7.4;;;1.8;;
28455;SDS011;15682;56.742;38.866;2023-07-16T11:09:26;7.5;;;3.2;;
28455;SDS011;15682;56.742;38.866;2023-07-16T11:11:27;8.1;;;2.4;;
28455;SDS011;15682;56.742;38.866;2023-07-16T11:13:28;6.4;;;1.8;;
28455;SDS011;15682;56.742;38.866;2023-07-16T11:15:30;5.6;;;2.3;;
28455;SDS011;15682;56.742;38.866;2023-07-16T11:17:29;10.7;;;1.9;;
28455;SDS011;15682;56.742;38.866;2023-07-16T11:19:30;6.1;;;1.8;;
28455;SDS011;15682;56.742;38.866;2023-07-16T11:21:30;7.4;;;1.8;;
28455;SDS011;15682;56.742;38.866;2023-07-16T11:23:33;6.4;;;2.0;;
28455;SDS011;15682;56.742;38.866;2023-07-16T11:25:31;7.6;;;2.1;;
28455;SDS011;15682;56.742;38.866;2023-07-16T11:27:32;7.8;;;2.5;;
28455;SDS011;15682;56.742;38.866;2023-07-16T11:29:35;6.1;;;2.4;;
28455;SDS011;15682;56.742;38.866;2023-07-16T11:31:38;14.2;;;2.8;;
28455;SDS011;15682;56.742;38.866;2023-07-16T11:33:34;5.5;;;2.4;;
28455;SDS011;15682;56.742;38.866;2023-07-16T11:35:34;8.1;;;3.3;;
28455;SDS011;15682;56.742;38.866;2023-07-16T11:37:35;8.2;;;2.9;;
28455;SDS011;15682;56.742;38.866;2023-07-16T11:39:35;10.1;;;2.2;;
28455;SDS011;15682;56.742;38.866;2023-07-16T11:41:35;8.2;;;3.0;;
28455;SDS011;15682;56.742;38.866;2023-07-16T11:43:36;3.8;;;1.7;;
28455;SDS011;15682;56.742;38.866;2023-07-16T11:45:37;3.7;;;1.6;;
28455;SDS011;15682;56.742;38.866;2023-07-16T11:47:37;2.4;;;1.5;;
28455;SDS011;15682;56.742;38.866;2023-07-16T11:49:38;3.1;;;1.5;;
28455;SDS011;15682;56.742;38.866;2023-07-16T11:51:38;5.4;;;2.0;;
28455;SDS011;15682;56.742;38.866;2023-07-16T11:53:39;7.9;;;2.2;;
28455;SDS011;15682;56.742;38.866;2023-07-16T11:55:39;5.5;;;2.0;;
28455;SDS011;15682;56.742;38.866;2023-07-16T11:57:40;3.1;;;1.5;;
28455;SDS011;15682;56.742;38.866;2023-07-16T11:59:40;3.5;;;1.8;;
28455;SDS011;15682;56.742;38.866;2023-07-16T12:01:41;5.6;;;2.0;;
28455;SDS011;15682;56.742;38.866;2023-07-16T12:03:42;5.8;;;2.1;;
28455;SDS011;15682;56.742;38.866;2023-07-16T12:05:43;3.4;;;1.6;;
28455;SDS011;15682;56.742;38.866;2023-07-16T12:07:43;6.1;;;2.0;;
28455;SDS011;15682;56.742;38.866;2023-07-16T12:09:43;5.7;;;1.9;;
28455;SDS011;15682;56.742;38.866;2023-07-16T12:11:44;8.0;;;1.9;;
28455;SDS011;15682;56.742;38.866;2023-07-16T12:13:44;6.2;;;2.0;;